createdAt,value
2022-09-14T00:01:28.502Z,32.80
2022-09-14T00:03:59.271Z,32.80
2022-09-14T00:08:55.464Z,45.30
2022-09-14T00:11:24.031Z,38.00
2022-09-14T00:16:25.607Z,46.30
2022-09-14T00:18:53.877Z,46.40
2022-09-14T00:23:48.410Z,46.00
2022-09-14T00:26:18.670Z,33.40
2022-09-14T00:28:52.020Z,46.00
2022-09-14T00:31:20.217Z,33.60
2022-09-14T00:33:50.580Z,47.30
2022-09-14T00:36:20.761Z,33.70
2022-09-14T00:38:48.212Z,39.00
2022-09-14T00:41:20.850Z,33.70
2022-09-14T00:43:57.182Z,47.20
2022-09-14T00:46:27.526Z,33.70
2022-09-14T00:48:57.052Z,34.00
2022-09-14T00:53:51.405Z,47.70
2022-09-14T00:56:18.685Z,33.90
2022-09-14T00:58:51.328Z,34.00
2022-09-14T01:06:35.307Z,34.20
2022-09-14T01:09:33.920Z,34.10
2022-09-14T01:12:26.635Z,34.20
2022-09-14T01:15:07.535Z,34.30
2022-09-14T01:17:53.849Z,34.30
2022-09-14T01:20:35.293Z,46.80
2022-09-14T01:23:03.827Z,46.70
2022-09-14T01:25:56.470Z,35.20
2022-09-14T01:28:32.005Z,46.80
2022-09-14T01:31:02.317Z,34.70
2022-09-14T01:33:40.221Z,47.10
2022-09-14T01:36:09.683Z,48.70
2022-09-14T01:38:44.861Z,48.50
2022-09-14T01:41:15.033Z,48.60
2022-09-14T01:43:57.868Z,38.20
2022-09-14T01:46:31.231Z,36.60
2022-09-14T01:49:07.982Z,43.80
2022-09-14T01:51:49.020Z,34.70
2022-09-14T01:54:31.964Z,34.80
2022-09-14T01:57:06.877Z,47.50
2022-09-14T01:59:39.128Z,35.00
2022-09-14T02:02:40.082Z,34.80
2022-09-14T02:05:23.919Z,34.90
2022-09-14T02:07:51.091Z,37.20
2022-09-14T02:10:18.333Z,49.00
2022-09-14T02:12:47.537Z,35.10
2022-09-14T02:15:15.321Z,35.20
2022-09-14T02:17:43.326Z,35.00
2022-09-14T02:20:37.541Z,47.60
2022-09-14T02:25:31.985Z,47.40
2022-09-14T02:27:58.835Z,48.90
2022-09-14T02:30:27.791Z,35.00
2022-09-14T02:33:14.327Z,40.10
2022-09-14T02:35:57.872Z,35.40
2022-09-14T02:38:33.112Z,38.50
2022-09-14T02:41:29.861Z,35.00
2022-09-14T02:44:05.537Z,48.00
2022-09-14T02:46:41.353Z,35.10
2022-09-14T02:49:37.078Z,48.90
2022-09-14T02:52:29.717Z,48.60
2022-09-14T02:55:07.193Z,49.40
2022-09-14T02:58:04.495Z,35.20
2022-09-14T03:00:35.260Z,48.40
2022-09-14T03:07:59.686Z,35.70
2022-09-14T03:10:27.224Z,35.40
2022-09-14T03:15:24.121Z,49.40
2022-09-14T03:17:51.804Z,50.30
2022-09-14T03:20:22.170Z,36.30
2022-09-14T03:22:48.917Z,50.30
2022-09-14T03:27:43.170Z,49.80
2022-09-14T03:37:32.393Z,50.10
2022-09-14T03:44:55.178Z,43.50
2022-09-14T03:49:53.609Z,50.60
2022-09-14T03:57:16.322Z,37.10
2022-09-14T03:59:43.797Z,51.30
2022-09-14T04:02:10.951Z,51.50
2022-09-14T04:04:37.680Z,50.20
2022-09-14T04:09:31.576Z,50.90
2022-09-14T04:14:29.495Z,38.30
2022-09-14T04:16:56.192Z,51.60
2022-09-14T04:19:22.918Z,51.70
2022-09-14T04:21:49.633Z,52.60
2022-09-14T04:26:45.539Z,47.70
2022-09-14T04:29:13.145Z,39.10
2022-09-14T04:34:07.163Z,52.40
2022-09-14T04:39:03.163Z,52.30
2022-09-14T04:41:31.284Z,40.30
2022-09-14T04:46:31.285Z,52.00
2022-09-14T04:51:29.030Z,40.60
2022-09-14T04:53:59.158Z,40.20
2022-09-14T04:58:57.970Z,40.50
2022-09-14T05:01:31.034Z,52.20
2022-09-14T05:03:58.713Z,40.30
2022-09-14T05:06:28.826Z,40.50
2022-09-14T05:08:56.616Z,55.00
2022-09-14T05:11:27.117Z,55.00
2022-09-14T05:13:55.731Z,41.10
2022-09-14T05:16:27.698Z,55.10
2022-09-14T05:18:57.120Z,43.50
2022-09-14T05:21:24.833Z,41.50
2022-09-14T05:24:04.640Z,45.30
2022-09-14T05:26:35.841Z,51.00
2022-09-14T05:31:31.462Z,41.20
2022-09-14T05:33:59.078Z,41.10
2022-09-14T05:36:26.348Z,41.10
2022-09-14T05:38:53.892Z,43.20
2022-09-14T05:46:17.556Z,41.80
2022-09-14T05:51:17.896Z,41.90
2022-09-14T05:53:52.132Z,55.80
2022-09-14T05:56:21.898Z,41.80
2022-09-14T06:01:19.318Z,48.90
2022-09-14T06:03:47.352Z,54.60
2022-09-14T06:06:16.581Z,41.50
2022-09-14T06:08:44.325Z,51.50
2022-09-14T06:11:16.931Z,41.80
2022-09-14T06:13:44.368Z,51.00
2022-09-14T06:16:13.674Z,41.90
2022-09-14T06:18:41.709Z,54.90
2022-09-14T06:21:10.333Z,55.50
2022-09-14T06:26:05.910Z,41.30
2022-09-14T06:33:27.517Z,55.20
2022-09-14T06:36:09.812Z,40.70
2022-09-14T06:41:06.901Z,40.80
2022-09-14T06:43:36.201Z,40.80
2022-09-14T06:46:06.294Z,40.40
2022-09-14T06:48:37.413Z,40.30
2022-09-14T06:51:18.648Z,48.40
2022-09-14T06:53:46.733Z,52.70
2022-09-14T06:58:41.897Z,39.80
2022-09-14T07:01:11.923Z,40.00
2022-09-14T07:03:39.754Z,52.90
2022-09-14T07:06:12.013Z,40.40
2022-09-14T07:08:41.277Z,49.30
2022-09-14T07:11:10.042Z,40.20
2022-09-14T07:13:37.204Z,54.20
2022-09-14T07:18:35.796Z,51.00
2022-09-14T07:21:07.437Z,49.70
2022-09-14T07:23:36.842Z,39.70
2022-09-14T07:26:05.253Z,39.50
2022-09-14T07:28:33.173Z,39.20
2022-09-14T07:33:28.639Z,39.40
2022-09-14T07:38:35.790Z,51.80
2022-09-14T07:41:11.595Z,52.20
2022-09-14T07:48:35.644Z,51.70
2022-09-14T07:51:07.505Z,51.40
2022-09-14T07:53:42.627Z,51.60
2022-09-14T07:56:11.679Z,51.40
2022-09-14T07:58:38.926Z,41.50
2022-09-14T08:01:23.822Z,38.50
2022-09-14T08:03:52.810Z,38.40
2022-09-14T08:06:22.553Z,38.40
2022-09-14T08:08:51.364Z,38.20
2022-09-14T08:11:29.714Z,38.30
2022-09-14T08:14:10.119Z,51.30
2022-09-14T08:19:12.126Z,51.60
2022-09-14T08:24:15.025Z,51.30
2022-09-14T08:31:38.928Z,41.70
2022-09-14T08:34:07.248Z,36.80
2022-09-14T08:36:42.571Z,39.60
2022-09-14T08:39:11.532Z,37.00
2022-09-14T08:41:49.447Z,49.10
2022-09-14T08:44:37.889Z,50.40
2022-09-14T08:47:27.002Z,49.00
2022-09-14T08:50:14.708Z,49.00
2022-09-14T08:52:54.571Z,36.20
2022-09-14T08:58:03.610Z,36.10
2022-09-14T09:00:49.969Z,36.00
2022-09-14T09:03:43.944Z,48.30
2022-09-14T09:06:41.545Z,35.70
2022-09-14T09:09:24.722Z,35.90
2022-09-14T09:11:55.384Z,49.30
2022-09-14T09:14:40.890Z,35.70
2022-09-14T09:17:29.865Z,35.50
2022-09-14T09:22:27.851Z,35.30
2022-09-14T09:24:55.672Z,35.20
2022-09-14T09:27:25.532Z,34.90
2022-09-14T09:32:24.723Z,46.50
2022-09-14T09:37:59.871Z,46.00
2022-09-14T09:40:37.614Z,46.70
2022-09-14T09:43:08.927Z,35.30
2022-09-14T09:45:51.822Z,33.30
2022-09-14T09:48:22.081Z,44.50
2022-09-14T09:51:13.304Z,32.40
2022-09-14T09:53:53.108Z,32.10
2022-09-14T09:56:26.241Z,32.10
2022-09-14T09:58:54.878Z,44.90
2022-09-14T10:04:17.307Z,36.20
2022-09-14T10:06:46.061Z,44.20
2022-09-14T10:09:19.270Z,31.30
2022-09-14T10:11:48.305Z,43.10
2022-09-14T10:14:33.607Z,42.80
2022-09-14T10:17:20.039Z,42.70
2022-09-14T10:19:52.430Z,31.70
2022-09-14T10:22:28.162Z,31.30
2022-09-14T10:24:56.552Z,44.70
2022-09-14T10:27:38.071Z,31.30
2022-09-14T10:30:12.348Z,31.60
2022-09-14T10:32:40.811Z,44.10
2022-09-14T10:35:15.537Z,31.30
2022-09-14T10:37:51.411Z,31.30
2022-09-14T10:40:35.496Z,31.30
2022-09-14T10:43:16.034Z,32.30
2022-09-14T10:45:57.729Z,31.30
2022-09-14T10:48:49.449Z,33.60
2022-09-14T10:51:45.379Z,31.20
2022-09-14T10:54:39.570Z,42.80
2022-09-14T10:57:52.161Z,30.90
2022-09-14T11:00:21.016Z,30.80
2022-09-14T11:02:59.503Z,30.60
2022-09-14T11:05:39.052Z,30.40
2022-09-14T11:08:14.921Z,30.10
2022-09-14T11:10:54.768Z,29.90
2022-09-14T11:13:43.319Z,29.80
2022-09-14T11:16:32.491Z,41.70
2022-09-14T11:19:38.795Z,29.40
2022-09-14T11:22:28.127Z,40.40
2022-09-14T11:25:10.457Z,41.20
2022-09-14T11:27:44.727Z,29.30
2022-09-14T11:30:22.698Z,28.90
2022-09-14T11:32:59.776Z,28.90
2022-09-14T11:35:44.640Z,28.40
2022-09-14T11:38:21.916Z,28.40
2022-09-14T11:41:15.107Z,28.80
2022-09-14T11:43:59.092Z,27.80
2022-09-14T11:51:24.018Z,28.30
2022-09-14T11:53:51.055Z,38.00
2022-09-14T11:56:26.193Z,27.30
2022-09-14T11:58:59.610Z,31.30
2022-09-14T12:01:38.355Z,26.70
2022-09-14T12:04:09.895Z,26.30
2022-09-14T12:06:49.273Z,26.50
2022-09-14T12:09:19.116Z,36.30
2022-09-14T12:11:50.576Z,26.20
2022-09-14T12:14:32.760Z,26.10
2022-09-14T12:20:29.394Z,35.60
2022-09-14T12:23:32.454Z,32.80
2022-09-14T12:26:06.037Z,23.60
2022-09-14T12:31:00.443Z,31.60
2022-09-14T12:33:33.604Z,22.30
2022-09-14T12:36:09.162Z,22.10
2022-09-14T12:38:38.968Z,21.40
2022-09-14T12:41:26.097Z,21.00
2022-09-14T12:43:54.792Z,21.80
2022-09-14T12:51:34.960Z,20.40
2022-09-14T12:54:24.504Z,24.90
2022-09-14T12:57:09.583Z,28.30
2022-09-14T12:59:44.443Z,28.50
2022-09-14T13:02:13.815Z,28.50
2022-09-14T13:04:45.798Z,19.50
2022-09-14T13:07:15.833Z,18.10
2022-09-14T13:09:52.137Z,24.10
2022-09-14T13:12:33.942Z,24.60
2022-09-14T13:15:07.098Z,23.10
2022-09-14T13:17:33.985Z,16.20
2022-09-14T13:20:05.338Z,21.10
2022-09-14T13:22:33.979Z,20.50
2022-09-14T13:25:01.530Z,21.20
2022-09-14T13:27:30.239Z,20.30
2022-09-14T13:30:07.536Z,19.90
2022-09-14T13:32:38.466Z,13.10
2022-09-14T13:35:06.511Z,18.00
2022-09-14T13:37:33.391Z,16.50
2022-09-14T13:40:00.479Z,16.50
2022-09-14T13:42:29.900Z,10.60
2022-09-14T13:44:56.867Z,10.80
2022-09-14T13:47:25.415Z,16.60
2022-09-14T13:49:54.114Z,10.00
2022-09-14T13:52:43.052Z,9.90
2022-09-14T13:55:43.544Z,10.00
2022-09-14T13:58:30.570Z,8.30
2022-09-14T14:01:09.914Z,12.10
2022-09-14T14:03:49.194Z,10.90
2022-09-14T14:06:31.470Z,8.90
2022-09-14T14:09:08.412Z,4.70
2022-09-14T14:11:40.105Z,9.70
2022-09-14T14:14:30.810Z,10.90
2022-09-14T14:17:13.099Z,12.30
2022-09-14T14:19:40.758Z,7.00
2022-09-14T14:22:25.698Z,14.40
2022-09-14T14:27:46.593Z,17.60
2022-09-14T14:30:21.872Z,13.80
2022-09-14T14:32:53.310Z,12.10
2022-09-14T14:35:26.527Z,18.60
2022-09-14T14:40:22.509Z,19.40
2022-09-14T14:42:50.407Z,19.70
2022-09-14T14:45:26.339Z,20.20
2022-09-14T14:47:55.704Z,18.20
2022-09-14T14:50:24.119Z,16.60
2022-09-14T14:52:51.736Z,15.50
2022-09-14T14:55:22.821Z,10.50
2022-09-14T14:57:50.823Z,11.20
2022-09-14T15:00:23.522Z,7.30
2022-09-14T15:02:50.972Z,8.00
2022-09-14T15:05:18.402Z,5.40
2022-09-14T15:07:45.865Z,3.40
2022-09-14T15:10:15.757Z,2.70
2022-09-14T15:12:44.723Z,10.20
2022-09-14T15:15:17.158Z,4.40
2022-09-14T15:17:44.365Z,8.90
2022-09-14T15:20:12.070Z,4.30
2022-09-14T15:22:41.033Z,4.10
2022-09-14T15:25:08.709Z,3.50
2022-09-14T15:27:36.182Z,3.10
2022-09-14T15:30:04.117Z,2.40
2022-09-14T15:32:31.139Z,1.80
2022-09-14T15:34:58.049Z,1.20
2022-09-14T15:37:24.916Z,1.00
2022-09-14T15:39:51.821Z,1.00
2022-09-14T15:42:19.018Z,1.00
2022-09-14T15:44:46.212Z,3.00
2022-09-14T15:47:16.994Z,1.00
2022-09-14T15:49:43.840Z,1.00
2022-09-14T15:52:11.372Z,1.70
2022-09-14T15:54:40.785Z,2.70
2022-09-14T15:57:10.807Z,3.60
2022-09-14T15:59:37.681Z,4.40
2022-09-14T16:02:04.614Z,4.90
2022-09-14T16:04:38.929Z,5.70
2022-09-14T16:07:11.727Z,6.70
2022-09-14T16:09:39.819Z,14.40
2022-09-14T16:12:07.998Z,7.80
2022-09-14T16:14:35.206Z,9.40
2022-09-14T16:17:02.082Z,9.80
2022-09-14T16:19:29.180Z,18.30
2022-09-14T16:21:56.043Z,18.10
2022-09-14T16:24:24.064Z,10.60
2022-09-14T16:26:55.306Z,10.40
2022-09-14T16:29:24.264Z,16.90
2022-09-14T16:31:52.096Z,16.30
2022-09-14T16:34:23.900Z,9.10
2022-09-14T16:36:50.810Z,8.90
2022-09-14T16:39:20.723Z,14.90
2022-09-14T16:41:47.539Z,15.70
2022-09-14T16:44:18.139Z,15.50
2022-09-14T16:46:45.845Z,17.20
2022-09-14T16:49:13.097Z,10.50
2022-09-14T16:51:40.151Z,10.30
2022-09-14T16:54:07.675Z,18.60
2022-09-14T16:56:36.845Z,19.50
2022-09-14T16:59:05.516Z,20.70
2022-09-14T17:01:43.143Z,20.60
2022-09-14T17:04:15.973Z,21.00
2022-09-14T17:06:44.740Z,13.60
2022-09-14T17:09:14.599Z,14.20
2022-09-14T17:11:42.031Z,21.30
2022-09-14T17:14:28.487Z,15.10
2022-09-14T17:16:55.995Z,23.00
2022-09-14T17:21:51.023Z,16.30
2022-09-14T17:24:20.718Z,21.20
2022-09-14T17:31:44.343Z,18.00
2022-09-14T17:34:13.331Z,26.00
2022-09-14T17:36:40.665Z,26.80
2022-09-14T17:41:41.162Z,19.90
2022-09-14T17:44:11.154Z,26.60
2022-09-14T17:46:48.155Z,28.30
2022-09-14T17:49:18.717Z,28.70
2022-09-14T17:51:47.298Z,29.30
2022-09-14T17:54:14.025Z,30.00
2022-09-14T17:56:40.896Z,29.80
2022-09-14T17:59:11.824Z,30.60
2022-09-14T18:01:38.769Z,29.80
2022-09-14T18:04:09.277Z,22.10
2022-09-14T18:06:39.796Z,30.50
2022-09-14T18:09:31.138Z,22.50
2022-09-14T18:11:58.101Z,30.90
2022-09-14T18:14:27.084Z,22.70
2022-09-14T18:26:48.689Z,23.60
2022-09-14T18:29:18.418Z,24.30
2022-09-14T18:34:13.054Z,28.40
2022-09-14T18:39:08.825Z,24.90
2022-09-14T18:44:03.352Z,33.60
2022-09-14T18:46:30.989Z,24.20
2022-09-14T18:49:00.081Z,35.00
2022-09-14T18:51:28.846Z,31.80
2022-09-14T18:54:03.040Z,29.10
2022-09-14T18:56:32.940Z,34.70
2022-09-14T18:59:02.835Z,25.10
2022-09-14T19:08:54.033Z,37.10
2022-09-14T19:11:28.769Z,35.70
2022-09-14T19:13:57.731Z,36.50
2022-09-14T19:16:26.659Z,26.70
2022-09-14T19:18:53.980Z,37.20
2022-09-14T19:21:24.056Z,37.60
2022-09-14T19:24:04.484Z,27.10
2022-09-14T19:26:43.946Z,27.20
2022-09-14T19:29:12.787Z,38.00
2022-09-14T19:34:07.045Z,32.50
2022-09-14T19:36:37.329Z,38.90
2022-09-14T19:39:04.605Z,27.80
2022-09-14T19:41:33.398Z,39.40
2022-09-14T19:44:01.352Z,28.20
2022-09-14T19:46:29.199Z,39.40
2022-09-14T19:51:25.742Z,28.40
2022-09-14T19:53:55.531Z,29.60
2022-09-14T19:56:27.596Z,41.40
2022-09-14T19:58:56.369Z,28.80
2022-09-14T20:01:25.471Z,28.90
2022-09-14T20:06:31.501Z,29.10
2022-09-14T20:09:01.658Z,32.70
2022-09-14T20:11:30.233Z,31.60
2022-09-14T20:13:58.862Z,29.70
2022-09-14T20:16:32.475Z,30.10
2022-09-14T20:19:02.939Z,42.70
2022-09-14T20:24:15.127Z,33.90
2022-09-14T20:36:33.367Z,32.80
2022-09-14T20:41:33.309Z,45.40
2022-09-14T20:44:00.466Z,38.30
2022-09-14T20:46:34.897Z,46.00
2022-09-14T20:49:05.663Z,33.50
2022-09-14T20:56:32.045Z,46.80
2022-09-14T20:59:01.052Z,48.00
2022-09-14T21:01:31.098Z,34.40
2022-09-14T21:04:09.640Z,47.20
2022-09-14T21:06:39.176Z,47.50
2022-09-14T21:09:06.754Z,34.60
2022-09-14T21:14:00.900Z,47.70
2022-09-14T21:16:30.494Z,34.90
2022-09-14T21:19:27.381Z,47.80
2022-09-14T21:21:54.915Z,48.40
2022-09-14T21:24:22.966Z,35.10
2022-09-14T21:29:20.846Z,35.20
2022-09-14T21:34:16.132Z,43.90
2022-09-14T21:36:48.123Z,35.20
2022-09-14T21:39:19.152Z,33.20
2022-09-14T21:41:49.148Z,35.50
2022-09-14T21:46:43.611Z,48.80
2022-09-14T21:49:14.502Z,35.90
2022-09-14T21:54:11.140Z,50.30
2022-09-14T21:56:40.314Z,50.60
2022-09-14T21:59:11.775Z,36.80
2022-09-14T22:06:34.541Z,37.00
2022-09-14T22:09:02.244Z,49.60
2022-09-14T22:11:32.625Z,51.60
2022-09-14T22:14:05.223Z,51.30
2022-09-14T22:16:35.467Z,37.60
2022-09-14T22:19:08.317Z,52.50
2022-09-14T22:21:37.606Z,37.90
2022-09-14T22:24:08.032Z,52.10
2022-09-14T22:26:36.052Z,52.20
2022-09-14T22:29:03.001Z,52.70
2022-09-14T22:33:58.191Z,38.40
2022-09-14T22:36:25.784Z,45.50
2022-09-14T22:38:56.697Z,52.20
2022-09-14T22:41:23.892Z,38.30
2022-09-14T22:46:18.806Z,38.40
2022-09-14T22:51:16.765Z,38.80
2022-09-14T22:53:43.818Z,52.40
2022-09-14T22:56:33.446Z,53.50
2022-09-14T22:59:01.659Z,38.90
2022-09-14T23:01:31.909Z,53.30
2022-09-14T23:04:01.951Z,38.80
2022-09-14T23:06:35.676Z,39.10
2022-09-14T23:11:30.844Z,40.60
2022-09-14T23:16:27.677Z,43.80
2022-09-14T23:18:56.724Z,53.10
2022-09-14T23:21:25.177Z,39.60
2022-09-14T23:23:54.154Z,52.70
2022-09-14T23:29:00.512Z,53.80
2022-09-14T23:31:29.196Z,53.80
2022-09-14T23:33:59.899Z,39.70
2022-09-14T23:36:27.473Z,46.50
2022-09-14T23:38:56.633Z,53.10
2022-09-14T23:41:24.725Z,40.00
2022-09-14T23:43:51.927Z,54.20
2022-09-14T23:46:19.139Z,53.90
2022-09-14T23:48:45.936Z,45.40
2022-09-14T23:51:14.899Z,40.20
2022-09-14T23:58:39.292Z,48.80
